Main page
METAR-TAF:

METAR-TAF

Airports :

Bobo-Dioulasso, Burkina Faso

Bobo Dioulasso Airport

latitude: 11-10N, longitude: 004-19W, elevation: 460 m

Current weather observation

The report was made 58 minutes ago, at 11:00 UTC
Wind 2 kt from the West/Southwest
Temperature 29°C
Humidity 62%
Pressure 1015 hPa
Visibility 10 km or more
no clouds below 1500 m and no cumulonimbus

METAR: DFOO 201100Z 24002KT CAVOK 29/21 Q1015

Time: 11:58 (11:58 UTC)

Forecast

The report was made 58 minutes ago, at 11:00 UTC
Forecast valid from 20 at 12 UTC to 21 at 12 UTC
Wind 8 kt from variable directions
Visibility 10 km or more
no clouds below 1500 m and no cumulonimbus
Temporary
from 21 at 06 UTC to 21 at 10 UTC
Visibility: 4000 m
haze

TAF: DFOO 201100Z 2012/2112 VRB08KT CAVOK TEMPO 2106/2110 4000 HZ

Weather observations and forecasts of more than 4000 airports (METAR and TAF reports).

The available stations are represented by yellow and red dots on the map.

Hover mouse over dot to see the name of the station.

Then click to see weather observations and forecasts.

To change the map : click on the green buttons with a black cross to zoom in, on the green button with a dash to zoom out, or on the green arrows for adjacent maps.


METAR-TAF: